Terminal Aerodrome Forecast
Issued by NWS Wilmington, OH

Current Version | Previous Version | Graphics & Text | Print | Product List | Glossary On
Versions: 1 2 3 4 5 6 7 8 9 10 11 12 13 14 15 16 17 18 19 20 21
585
FTUS41 KILN 091132
TAFDAY
TAF
KDAY 091132Z 0912/1012 27012KT P6SM SCT030
     FM091500 27012KT P6SM -SN BKN022
     FM100100 26006KT P6SM SCT025=

USA.gov is the U.S. government's official web portal to all federal, state and local government web resources and services.